Jamestown, ND (58401)

4:36 AM CDT on April 27, 2017 (GMT -0500)
Leapaldt Addition | | Change Station

Elev 1486 ft 46.93 °N, 98.69 °W | Updated 23 seconds ago

Overcast
Overcast
29.1 °F
Feels Like 29 °F
N
3.0
Wind Variable Wind from NNW

Today
High -- | Low -- °F
--% Chance of Precip.
Yesterday
High -- | Low -- °F
Precip. -- in
Pressure 29.71 in
Visibility 10.0 miles
Clouds Mostly Cloudy 1100 ft
Overcast 1800 ft
Windchill 29 °F
Dew Point 28 °F
Humidity 96%
Rainfall 0.00 in
Snow Depth Not available.
6:25 AM 8:40 PM
New Moon, 1% visible
SPECI KJMS 270908Z AUTO 01006KT 10SM BKN011 OVC018 M01/M03 A2971 RMK AO2 T10111033
Pressure 29.71 in
Visibility 10.0 miles
Clouds Mostly Cloudy 1100 ft
Overcast 1800 ft
Windchill 29 °F
Dew Point 28 °F
Humidity 96%
Rainfall 0.00 in
Snow Depth Not available.
6:25 AM 8:40 PM
New Moon, 1% visible
SPECI KJMS 270908Z AUTO 01006KT 10SM BKN011 OVC018 M01/M03 A2971 RMK AO2 T10111033

Get Severe Weather Alerts

Thanks for signing up!

Be on the lookout for a verification email in your inbox.

You'll start receiving the daily forecast at 8 AM.

×

10-Day Weather Forecast

Almanac

Astronomy

Apr. 27, 2017 Rise Set
Actual Time
Civil Twilight
Nautical Twilight
Astronomical Twilight
Moon
Length of Visible Light
Length of Day
Tomorrow will be .
, % of the Moon is Illuminated

Today's Extremes

State Highs State Lows

Community

WunderPhotos

WunderBlog® & News

Nearby

Air Quality

  Air Quality AQ Index Pollutant
Not available.

Snow Depth

Station Depth Elevation

Earthquake Activity

City Distance Mag. Time & Date
Minimum magnitude displayed is 2.5.

Coastal Water Temperatures

Place Temperature

Stations

Nearby Weather Stations

Station Location Temp. Windchill Dew Point Humidity Wind Precip. Elev Updated Type
                   

Watches & Warnings

There are currently no watches in effect.